Terminal Aerodrome Forecast
Issued by NWS

Home | Current Version | Previous Version | Text Only | Print | Product List | Glossary On
Versions: 1 2 3 4 5 6 7 8 9 10 11 12 13 14 15 16 17 18
000
FTUS43 KBIS 061100
TAFMOT
TAF
KMOT 061130Z 0612/0712 26010KT P6SM SCT090
     FM061600 23010KT P6SM BKN060 OVC080
     FM062000 26010KT P6SM VCSH BKN050 OVC080
     FM070000 29018G25KT P6SM SCT015 BKN035
     FM070300 30018G25KT P6SM BKN015 BKN035=

USA.gov is the U.S. government's official web portal to all federal, state and local government web resources and services.